sensor_id;sensor_type;location;lat;lon;timestamp;P1;durP1;ratioP1;P2;durP2;ratioP2
56718;SDS011;42597;40.636;0.278;2022-07-23T00:01:22;9.98;;;5.68;;
56718;SDS011;42597;40.636;0.278;2022-07-23T00:03:48;8.55;;;5.10;;
56718;SDS011;42597;40.636;0.278;2022-07-23T00:06:17;6.55;;;5.35;;
56718;SDS011;42597;40.636;0.278;2022-07-23T00:08:43;8.63;;;5.20;;
56718;SDS011;42597;40.636;0.278;2022-07-23T00:11:08;8.43;;;5.60;;
56718;SDS011;42597;40.636;0.278;2022-07-23T00:13:34;7.57;;;5.07;;
56718;SDS011;42597;40.636;0.278;2022-07-23T00:16:00;7.82;;;5.13;;
56718;SDS011;42597;40.636;0.278;2022-07-23T00:18:25;6.57;;;5.40;;
56718;SDS011;42597;40.636;0.278;2022-07-23T00:20:51;7.53;;;5.13;;
56718;SDS011;42597;40.636;0.278;2022-07-23T00:23:17;7.82;;;4.40;;
56718;SDS011;42597;40.636;0.278;2022-07-23T00:25:43;6.20;;;4.38;;
56718;SDS011;42597;40.636;0.278;2022-07-23T00:28:10;6.35;;;4.65;;
56718;SDS011;42597;40.636;0.278;2022-07-23T00:30:36;8.13;;;5.15;;
56718;SDS011;42597;40.636;0.278;2022-07-23T00:33:03;8.57;;;4.35;;
56718;SDS011;42597;40.636;0.278;2022-07-23T00:35:34;6.50;;;4.72;;
56718;SDS011;42597;40.636;0.278;2022-07-23T00:38:02;6.25;;;4.85;;
56718;SDS011;42597;40.636;0.278;2022-07-23T00:40:29;7.75;;;5.13;;
56718;SDS011;42597;40.636;0.278;2022-07-23T00:42:55;5.40;;;4.15;;
56718;SDS011;42597;40.636;0.278;2022-07-23T00:45:21;5.45;;;4.30;;
56718;SDS011;42597;40.636;0.278;2022-07-23T00:47:47;7.70;;;5.30;;
56718;SDS011;42597;40.636;0.278;2022-07-23T00:50:13;5.50;;;4.25;;
56718;SDS011;42597;40.636;0.278;2022-07-23T00:52:40;5.45;;;4.43;;
56718;SDS011;42597;40.636;0.278;2022-07-23T00:55:06;8.43;;;4.28;;
56718;SDS011;42597;40.636;0.278;2022-07-23T00:57:34;8.07;;;4.93;;
56718;SDS011;42597;40.636;0.278;2022-07-23T01:00:01;6.53;;;4.53;;
56718;SDS011;42597;40.636;0.278;2022-07-23T01:02:27;6.38;;;4.68;;
56718;SDS011;42597;40.636;0.278;2022-07-23T01:04:53;6.68;;;4.60;;
56718;SDS011;42597;40.636;0.278;2022-07-23T01:07:19;8.20;;;5.03;;
56718;SDS011;42597;40.636;0.278;2022-07-23T01:09:45;6.30;;;4.70;;
56718;SDS011;42597;40.636;0.278;2022-07-23T01:12:12;6.22;;;4.25;;
56718;SDS011;42597;40.636;0.278;2022-07-23T01:14:37;6.45;;;4.18;;
56718;SDS011;42597;40.636;0.278;2022-07-23T01:17:03;5.68;;;3.85;;
56718;SDS011;42597;40.636;0.278;2022-07-23T01:19:29;8.32;;;4.57;;
56718;SDS011;42597;40.636;0.278;2022-07-23T01:21:55;6.68;;;4.50;;
56718;SDS011;42597;40.636;0.278;2022-07-23T01:24:23;5.70;;;4.28;;
56718;SDS011;42597;40.636;0.278;2022-07-23T01:26:49;8.20;;;4.50;;
56718;SDS011;42597;40.636;0.278;2022-07-23T01:29:15;6.95;;;4.32;;
56718;SDS011;42597;40.636;0.278;2022-07-23T01:31:42;6.63;;;4.45;;
56718;SDS011;42597;40.636;0.278;2022-07-23T01:34:08;8.07;;;4.72;;
56718;SDS011;42597;40.636;0.278;2022-07-23T01:36:34;8.38;;;4.75;;
56718;SDS011;42597;40.636;0.278;2022-07-23T01:39:00;6.38;;;4.63;;
56718;SDS011;42597;40.636;0.278;2022-07-23T01:41:27;6.30;;;4.80;;
56718;SDS011;42597;40.636;0.278;2022-07-23T01:43:52;5.43;;;4.20;;
56718;SDS011;42597;40.636;0.278;2022-07-23T01:46:18;6.28;;;4.25;;
56718;SDS011;42597;40.636;0.278;2022-07-23T01:48:43;6.97;;;4.60;;
56718;SDS011;42597;40.636;0.278;2022-07-23T01:51:09;5.97;;;4.28;;
56718;SDS011;42597;40.636;0.278;2022-07-23T01:53:34;6.32;;;4.78;;
56718;SDS011;42597;40.636;0.278;2022-07-23T01:56:00;5.65;;;4.30;;
56718;SDS011;42597;40.636;0.278;2022-07-23T01:58:26;12.95;;;5.28;;
56718;SDS011;42597;40.636;0.278;2022-07-23T02:00:53;5.90;;;4.15;;
56718;SDS011;42597;40.636;0.278;2022-07-23T02:03:19;6.70;;;4.57;;
56718;SDS011;42597;40.636;0.278;2022-07-23T02:05:45;6.80;;;4.22;;
56718;SDS011;42597;40.636;0.278;2022-07-23T02:08:11;6.00;;;4.60;;
56718;SDS011;42597;40.636;0.278;2022-07-23T02:10:37;8.15;;;4.85;;
56718;SDS011;42597;40.636;0.278;2022-07-23T02:13:03;11.07;;;4.60;;
56718;SDS011;42597;40.636;0.278;2022-07-23T02:15:28;6.22;;;4.40;;
56718;SDS011;42597;40.636;0.278;2022-07-23T02:17:54;5.13;;;3.78;;
56718;SDS011;42597;40.636;0.278;2022-07-23T02:20:21;7.40;;;4.78;;
56718;SDS011;42597;40.636;0.278;2022-07-23T02:22:46;6.32;;;4.60;;
56718;SDS011;42597;40.636;0.278;2022-07-23T02:25:12;6.85;;;4.28;;
56718;SDS011;42597;40.636;0.278;2022-07-23T02:27:38;6.70;;;4.28;;
56718;SDS011;42597;40.636;0.278;2022-07-23T02:30:04;6.38;;;4.78;;
56718;SDS011;42597;40.636;0.278;2022-07-23T02:32:31;6.80;;;4.93;;
56718;SDS011;42597;40.636;0.278;2022-07-23T02:34:57;6.03;;;3.88;;
56718;SDS011;42597;40.636;0.278;2022-07-23T02:37:22;7.15;;;4.78;;
56718;SDS011;42597;40.636;0.278;2022-07-23T02:39:48;12.30;;;4.78;;
56718;SDS011;42597;40.636;0.278;2022-07-23T02:42:14;7.35;;;5.03;;
56718;SDS011;42597;40.636;0.278;2022-07-23T02:44:40;9.23;;;5.03;;
56718;SDS011;42597;40.636;0.278;2022-07-23T02:47:06;6.10;;;4.50;;
56718;SDS011;42597;40.636;0.278;2022-07-23T02:49:32;6.68;;;4.68;;
56718;SDS011;42597;40.636;0.278;2022-07-23T02:51:58;9.40;;;4.93;;
56718;SDS011;42597;40.636;0.278;2022-07-23T02:54:23;7.82;;;4.82;;
56718;SDS011;42597;40.636;0.278;2022-07-23T02:56:49;6.32;;;4.53;;
56718;SDS011;42597;40.636;0.278;2022-07-23T02:59:18;7.25;;;4.70;;
56718;SDS011;42597;40.636;0.278;2022-07-23T03:01:43;7.43;;;4.55;;
56718;SDS011;42597;40.636;0.278;2022-07-23T03:04:10;6.97;;;4.57;;
56718;SDS011;42597;40.636;0.278;2022-07-23T03:06:35;7.47;;;4.80;;
56718;SDS011;42597;40.636;0.278;2022-07-23T03:09:01;9.23;;;4.25;;
56718;SDS011;42597;40.636;0.278;2022-07-23T03:11:27;6.57;;;4.38;;
56718;SDS011;42597;40.636;0.278;2022-07-23T03:13:53;5.88;;;4.05;;
56718;SDS011;42597;40.636;0.278;2022-07-23T03:16:18;6.47;;;4.53;;
56718;SDS011;42597;40.636;0.278;2022-07-23T03:18:44;8.23;;;4.80;;
56718;SDS011;42597;40.636;0.278;2022-07-23T03:21:09;7.18;;;4.28;;
56718;SDS011;42597;40.636;0.278;2022-07-23T03:23:35;9.82;;;4.45;;
56718;SDS011;42597;40.636;0.278;2022-07-23T03:26:00;4.80;;;3.72;;
56718;SDS011;42597;40.636;0.278;2022-07-23T03:28:26;11.32;;;4.88;;
56718;SDS011;42597;40.636;0.278;2022-07-23T03:30:51;8.00;;;4.38;;
56718;SDS011;42597;40.636;0.278;2022-07-23T03:33:17;5.72;;;3.60;;
56718;SDS011;42597;40.636;0.278;2022-07-23T03:35:44;9.23;;;5.22;;
56718;SDS011;42597;40.636;0.278;2022-07-23T03:38:11;5.30;;;3.85;;
56718;SDS011;42597;40.636;0.278;2022-07-23T03:40:37;6.25;;;4.78;;
56718;SDS011;42597;40.636;0.278;2022-07-23T03:43:03;9.20;;;4.93;;
56718;SDS011;42597;40.636;0.278;2022-07-23T03:45:28;6.68;;;5.03;;
56718;SDS011;42597;40.636;0.278;2022-07-23T03:47:54;6.85;;;4.50;;
56718;SDS011;42597;40.636;0.278;2022-07-23T03:50:19;6.15;;;4.50;;
56718;SDS011;42597;40.636;0.278;2022-07-23T03:52:45;9.18;;;4.82;;
56718;SDS011;42597;40.636;0.278;2022-07-23T03:55:10;10.90;;;5.75;;
56718;SDS011;42597;40.636;0.278;2022-07-23T03:57:36;8.73;;;4.65;;
56718;SDS011;42597;40.636;0.278;2022-07-23T04:00:03;13.48;;;4.68;;
56718;SDS011;42597;40.636;0.278;2022-07-23T04:04:56;7.93;;;3.60;;
56718;SDS011;42597;40.636;0.278;2022-07-23T04:07:21;7.82;;;4.60;;
56718;SDS011;42597;40.636;0.278;2022-07-23T04:09:47;7.95;;;4.22;;
56718;SDS011;42597;40.636;0.278;2022-07-23T04:12:13;7.65;;;4.97;;
56718;SDS011;42597;40.636;0.278;2022-07-23T04:14:41;9.27;;;4.63;;
56718;SDS011;42597;40.636;0.278;2022-07-23T04:17:06;7.65;;;4.50;;
56718;SDS011;42597;40.636;0.278;2022-07-23T04:19:32;7.47;;;4.95;;
56718;SDS011;42597;40.636;0.278;2022-07-23T04:21:57;9.10;;;3.97;;
56718;SDS011;42597;40.636;0.278;2022-07-23T04:24:23;6.28;;;3.38;;
56718;SDS011;42597;40.636;0.278;2022-07-23T04:26:49;6.25;;;4.43;;
56718;SDS011;42597;40.636;0.278;2022-07-23T04:29:14;7.25;;;4.25;;
56718;SDS011;42597;40.636;0.278;2022-07-23T04:31:40;9.07;;;4.40;;
56718;SDS011;42597;40.636;0.278;2022-07-23T04:34:06;6.78;;;4.30;;
56718;SDS011;42597;40.636;0.278;2022-07-23T04:36:31;9.30;;;5.28;;
56718;SDS011;42597;40.636;0.278;2022-07-23T04:38:57;6.13;;;4.95;;
56718;SDS011;42597;40.636;0.278;2022-07-23T04:41:23;5.88;;;4.35;;
56718;SDS011;42597;40.636;0.278;2022-07-23T04:43:49;5.35;;;3.85;;
56718;SDS011;42597;40.636;0.278;2022-07-23T04:46:14;13.27;;;4.38;;
56718;SDS011;42597;40.636;0.278;2022-07-23T04:48:40;8.38;;;4.53;;
56718;SDS011;42597;40.636;0.278;2022-07-23T04:51:07;5.72;;;4.45;;
56718;SDS011;42597;40.636;0.278;2022-07-23T04:53:33;6.43;;;4.03;;
56718;SDS011;42597;40.636;0.278;2022-07-23T04:55:58;6.40;;;4.22;;
56718;SDS011;42597;40.636;0.278;2022-07-23T04:58:24;6.85;;;4.45;;
56718;SDS011;42597;40.636;0.278;2022-07-23T05:00:50;8.35;;;5.10;;
56718;SDS011;42597;40.636;0.278;2022-07-23T05:03:16;10.35;;;4.95;;
56718;SDS011;42597;40.636;0.278;2022-07-23T05:05:42;7.70;;;4.65;;
56718;SDS011;42597;40.636;0.278;2022-07-23T05:08:08;17.73;;;5.53;;
56718;SDS011;42597;40.636;0.278;2022-07-23T05:10:34;5.65;;;4.50;;
56718;SDS011;42597;40.636;0.278;2022-07-23T05:12:59;7.13;;;4.47;;
56718;SDS011;42597;40.636;0.278;2022-07-23T05:15:25;8.32;;;4.70;;
56718;SDS011;42597;40.636;0.278;2022-07-23T05:17:51;6.85;;;4.32;;
56718;SDS011;42597;40.636;0.278;2022-07-23T05:20:16;10.13;;;4.75;;
56718;SDS011;42597;40.636;0.278;2022-07-23T05:22:42;6.80;;;5.18;;
56718;SDS011;42597;40.636;0.278;2022-07-23T05:25:08;5.47;;;3.55;;
56718;SDS011;42597;40.636;0.278;2022-07-23T05:27:34;6.43;;;4.47;;
56718;SDS011;42597;40.636;0.278;2022-07-23T05:29:59;8.93;;;4.75;;
56718;SDS011;42597;40.636;0.278;2022-07-23T05:32:25;7.07;;;4.35;;
56718;SDS011;42597;40.636;0.278;2022-07-23T05:34:51;6.38;;;4.45;;
56718;SDS011;42597;40.636;0.278;2022-07-23T05:37:17;7.90;;;5.03;;
56718;SDS011;42597;40.636;0.278;2022-07-23T05:39:42;7.32;;;5.18;;
56718;SDS011;42597;40.636;0.278;2022-07-23T05:42:08;8.23;;;4.93;;
56718;SDS011;42597;40.636;0.278;2022-07-23T05:44:34;7.47;;;4.70;;
56718;SDS011;42597;40.636;0.278;2022-07-23T05:47:00;6.97;;;4.78;;
56718;SDS011;42597;40.636;0.278;2022-07-23T05:49:26;7.57;;;4.78;;
56718;SDS011;42597;40.636;0.278;2022-07-23T05:51:51;6.07;;;4.32;;
56718;SDS011;42597;40.636;0.278;2022-07-23T05:54:17;6.90;;;4.80;;
56718;SDS011;42597;40.636;0.278;2022-07-23T05:56:43;7.47;;;4.65;;
56718;SDS011;42597;40.636;0.278;2022-07-23T05:59:08;6.97;;;5.03;;
56718;SDS011;42597;40.636;0.278;2022-07-23T06:01:34;11.55;;;5.75;;
56718;SDS011;42597;40.636;0.278;2022-07-23T06:03:59;12.57;;;5.55;;
56718;SDS011;42597;40.636;0.278;2022-07-23T06:06:25;12.23;;;5.10;;
56718;SDS011;42597;40.636;0.278;2022-07-23T06:08:51;11.85;;;5.65;;
56718;SDS011;42597;40.636;0.278;2022-07-23T06:11:17;10.80;;;5.03;;
56718;SDS011;42597;40.636;0.278;2022-07-23T06:13:42;7.75;;;5.35;;
56718;SDS011;42597;40.636;0.278;2022-07-23T06:16:08;7.45;;;4.53;;
56718;SDS011;42597;40.636;0.278;2022-07-23T06:18:34;7.95;;;5.13;;
56718;SDS011;42597;40.636;0.278;2022-07-23T06:20:59;14.95;;;5.47;;
56718;SDS011;42597;40.636;0.278;2022-07-23T06:23:25;7.97;;;5.18;;
56718;SDS011;42597;40.636;0.278;2022-07-23T06:25:51;7.15;;;4.90;;
56718;SDS011;42597;40.636;0.278;2022-07-23T06:28:17;10.32;;;5.22;;
56718;SDS011;42597;40.636;0.278;2022-07-23T06:30:43;8.80;;;4.90;;
56718;SDS011;42597;40.636;0.278;2022-07-23T06:33:08;10.02;;;6.50;;
56718;SDS011;42597;40.636;0.278;2022-07-23T06:35:34;8.25;;;5.22;;
56718;SDS011;42597;40.636;0.278;2022-07-23T06:38:00;6.50;;;5.10;;
56718;SDS011;42597;40.636;0.278;2022-07-23T06:40:26;8.50;;;6.07;;
56718;SDS011;42597;40.636;0.278;2022-07-23T06:42:51;7.35;;;4.93;;
56718;SDS011;42597;40.636;0.278;2022-07-23T06:45:17;6.93;;;5.40;;
56718;SDS011;42597;40.636;0.278;2022-07-23T06:47:43;12.95;;;5.75;;
56718;SDS011;42597;40.636;0.278;2022-07-23T06:50:09;9.05;;;5.57;;
56718;SDS011;42597;40.636;0.278;2022-07-23T06:52:35;8.80;;;5.50;;
56718;SDS011;42597;40.636;0.278;2022-07-23T06:55:01;9.73;;;5.70;;
56718;SDS011;42597;40.636;0.278;2022-07-23T06:57:26;10.13;;;5.57;;
56718;SDS011;42597;40.636;0.278;2022-07-23T06:59:52;10.45;;;5.03;;
56718;SDS011;42597;40.636;0.278;2022-07-23T07:02:18;8.23;;;5.30;;
56718;SDS011;42597;40.636;0.278;2022-07-23T07:04:44;6.70;;;4.57;;
56718;SDS011;42597;40.636;0.278;2022-07-23T07:07:10;7.47;;;4.60;;
56718;SDS011;42597;40.636;0.278;2022-07-23T07:09:37;9.90;;;5.03;;
56718;SDS011;42597;40.636;0.278;2022-07-23T07:12:03;8.23;;;4.93;;
56718;SDS011;42597;40.636;0.278;2022-07-23T07:14:29;6.85;;;4.70;;
56718;SDS011;42597;40.636;0.278;2022-07-23T07:16:56;7.00;;;5.18;;
56718;SDS011;42597;40.636;0.278;2022-07-23T07:19:22;7.00;;;4.95;;
56718;SDS011;42597;40.636;0.278;2022-07-23T07:21:47;7.15;;;3.95;;
56718;SDS011;42597;40.636;0.278;2022-07-23T07:24:13;9.60;;;5.05;;
56718;SDS011;42597;40.636;0.278;2022-07-23T07:26:39;6.07;;;4.63;;
56718;SDS011;42597;40.636;0.278;2022-07-23T07:29:05;6.63;;;4.55;;
56718;SDS011;42597;40.636;0.278;2022-07-23T07:31:31;7.75;;;5.35;;
56718;SDS011;42597;40.636;0.278;2022-07-23T07:33:57;15.27;;;5.35;;
56718;SDS011;42597;40.636;0.278;2022-07-23T07:36:24;9.30;;;5.93;;
56718;SDS011;42597;40.636;0.278;2022-07-23T07:38:49;8.30;;;5.38;;
56718;SDS011;42597;40.636;0.278;2022-07-23T07:41:16;12.95;;;5.88;;
56718;SDS011;42597;40.636;0.278;2022-07-23T07:43:41;12.77;;;5.97;;
56718;SDS011;42597;40.636;0.278;2022-07-23T07:46:07;22.05;;;10.20;;
56718;SDS011;42597;40.636;0.278;2022-07-23T07:48:38;18.30;;;7.07;;
56718;SDS011;42597;40.636;0.278;2022-07-23T07:51:04;11.18;;;6.20;;
56718;SDS011;42597;40.636;0.278;2022-07-23T07:53:30;7.85;;;5.30;;
56718;SDS011;42597;40.636;0.278;2022-07-23T07:55:56;8.23;;;5.47;;
56718;SDS011;42597;40.636;0.278;2022-07-23T07:58:22;9.32;;;5.50;;
56718;SDS011;42597;40.636;0.278;2022-07-23T08:00:48;9.45;;;6.75;;
56718;SDS011;42597;40.636;0.278;2022-07-23T08:03:14;7.65;;;4.90;;
56718;SDS011;42597;40.636;0.278;2022-07-23T08:05:40;8.82;;;4.85;;
56718;SDS011;42597;40.636;0.278;2022-07-23T08:08:05;7.57;;;4.63;;
56718;SDS011;42597;40.636;0.278;2022-07-23T08:10:31;8.27;;;4.85;;
56718;SDS011;42597;40.636;0.278;2022-07-23T08:12:57;9.38;;;5.20;;
56718;SDS011;42597;40.636;0.278;2022-07-23T08:15:26;10.10;;;5.38;;
56718;SDS011;42597;40.636;0.278;2022-07-23T08:17:54;6.93;;;5.10;;
56718;SDS011;42597;40.636;0.278;2022-07-23T08:20:21;9.10;;;4.95;;
56718;SDS011;42597;40.636;0.278;2022-07-23T08:22:55;8.52;;;5.50;;
56718;SDS011;42597;40.636;0.278;2022-07-23T08:25:28;7.68;;;5.57;;
56718;SDS011;42597;40.636;0.278;2022-07-23T08:27:57;8.32;;;5.30;;
56718;SDS011;42597;40.636;0.278;2022-07-23T08:30:24;9.50;;;5.30;;
56718;SDS011;42597;40.636;0.278;2022-07-23T08:35:16;8.27;;;5.22;;
56718;SDS011;42597;40.636;0.278;2022-07-23T08:37:42;11.50;;;6.07;;
56718;SDS011;42597;40.636;0.278;2022-07-23T08:40:07;10.95;;;5.25;;
56718;SDS011;42597;40.636;0.278;2022-07-23T08:42:34;9.45;;;4.90;;
56718;SDS011;42597;40.636;0.278;2022-07-23T08:45:03;10.25;;;6.68;;
56718;SDS011;42597;40.636;0.278;2022-07-23T08:47:32;9.68;;;6.05;;
56718;SDS011;42597;40.636;0.278;2022-07-23T08:49:58;8.48;;;5.63;;
56718;SDS011;42597;40.636;0.278;2022-07-23T08:52:25;6.97;;;5.30;;
56718;SDS011;42597;40.636;0.278;2022-07-23T08:54:51;6.75;;;5.68;;
56718;SDS011;42597;40.636;0.278;2022-07-23T08:57:18;15.88;;;6.45;;
56718;SDS011;42597;40.636;0.278;2022-07-23T08:59:44;7.70;;;5.57;;
56718;SDS011;42597;40.636;0.278;2022-07-23T09:02:09;10.50;;;6.53;;
56718;SDS011;42597;40.636;0.278;2022-07-23T09:04:35;9.85;;;6.25;;
56718;SDS011;42597;40.636;0.278;2022-07-23T09:07:01;6.63;;;5.13;;
56718;SDS011;42597;40.636;0.278;2022-07-23T09:12:12;8.23;;;5.03;;
56718;SDS011;42597;40.636;0.278;2022-07-23T09:14:39;8.43;;;6.03;;
56718;SDS011;42597;40.636;0.278;2022-07-23T09:17:17;7.32;;;5.70;;
56718;SDS011;42597;40.636;0.278;2022-07-23T09:19:44;9.75;;;5.72;;
56718;SDS011;42597;40.636;0.278;2022-07-23T09:22:17;12.63;;;6.78;;
56718;SDS011;42597;40.636;0.278;2022-07-23T09:30:15;11.65;;;5.65;;
56718;SDS011;42597;40.636;0.278;2022-07-23T09:32:42;12.20;;;7.15;;
56718;SDS011;42597;40.636;0.278;2022-07-23T09:35:08;10.45;;;6.47;;
56718;SDS011;42597;40.636;0.278;2022-07-23T09:37:34;8.55;;;6.50;;
56718;SDS011;42597;40.636;0.278;2022-07-23T09:40:07;8.30;;;6.25;;
56718;SDS011;42597;40.636;0.278;2022-07-23T09:42:36;8.95;;;6.20;;
56718;SDS011;42597;40.636;0.278;2022-07-23T09:45:02;8.15;;;5.47;;
56718;SDS011;42597;40.636;0.278;2022-07-23T09:47:30;9.40;;;6.45;;
56718;SDS011;42597;40.636;0.278;2022-07-23T09:49:57;10.18;;;6.68;;
56718;SDS011;42597;40.636;0.278;2022-07-23T09:52:45;12.13;;;7.35;;
56718;SDS011;42597;40.636;0.278;2022-07-23T09:55:14;8.18;;;6.47;;
56718;SDS011;42597;40.636;0.278;2022-07-23T09:57:41;9.07;;;6.68;;
56718;SDS011;42597;40.636;0.278;2022-07-23T10:00:11;10.77;;;7.13;;
56718;SDS011;42597;40.636;0.278;2022-07-23T10:02:37;10.57;;;6.60;;
56718;SDS011;42597;40.636;0.278;2022-07-23T10:05:04;8.90;;;6.13;;
56718;SDS011;42597;40.636;0.278;2022-07-23T10:07:31;8.23;;;6.93;;
56718;SDS011;42597;40.636;0.278;2022-07-23T10:10:00;8.13;;;6.57;;
56718;SDS011;42597;40.636;0.278;2022-07-23T10:12:27;7.93;;;6.63;;
56718;SDS011;42597;40.636;0.278;2022-07-23T10:15:11;8.18;;;7.20;;
56718;SDS011;42597;40.636;0.278;2022-07-23T10:17:37;15.77;;;7.47;;
56718;SDS011;42597;40.636;0.278;2022-07-23T10:20:03;9.50;;;6.57;;
56718;SDS011;42597;40.636;0.278;2022-07-23T10:22:31;8.05;;;6.57;;
56718;SDS011;42597;40.636;0.278;2022-07-23T10:31:02;10.07;;;7.32;;
56718;SDS011;42597;40.636;0.278;2022-07-23T10:40:29;13.57;;;7.32;;
56718;SDS011;42597;40.636;0.278;2022-07-23T10:42:58;10.25;;;7.30;;
56718;SDS011;42597;40.636;0.278;2022-07-23T10:59:16;10.70;;;5.63;;
56718;SDS011;42597;40.636;0.278;2022-07-23T11:01:43;9.38;;;6.95;;
56718;SDS011;42597;40.636;0.278;2022-07-23T11:04:09;8.60;;;7.60;;
56718;SDS011;42597;40.636;0.278;2022-07-23T11:09:26;10.50;;;7.78;;
56718;SDS011;42597;40.636;0.278;2022-07-23T11:17:39;7.65;;;6.28;;
56718;SDS011;42597;40.636;0.278;2022-07-23T11:20:27;12.88;;;8.07;;
56718;SDS011;42597;40.636;0.278;2022-07-23T11:22:57;12.82;;;7.57;;
56718;SDS011;42597;40.636;0.278;2022-07-23T11:27:54;10.18;;;6.63;;
56718;SDS011;42597;40.636;0.278;2022-07-23T11:35:35;10.68;;;7.15;;
56718;SDS011;42597;40.636;0.278;2022-07-23T11:38:04;7.57;;;6.50;;
56718;SDS011;42597;40.636;0.278;2022-07-23T11:40:38;10.77;;;6.50;;
56718;SDS011;42597;40.636;0.278;2022-07-23T11:43:07;9.60;;;6.57;;
56718;SDS011;42597;40.636;0.278;2022-07-23T11:45:39;10.93;;;6.45;;
56718;SDS011;42597;40.636;0.278;2022-07-23T11:48:07;10.18;;;7.10;;
56718;SDS011;42597;40.636;0.278;2022-07-23T11:50:34;9.57;;;7.13;;
56718;SDS011;42597;40.636;0.278;2022-07-23T11:53:01;10.10;;;7.07;;
56718;SDS011;42597;40.636;0.278;2022-07-23T11:55:28;10.60;;;7.20;;
56718;SDS011;42597;40.636;0.278;2022-07-23T11:57:54;8.45;;;7.00;;
56718;SDS011;42597;40.636;0.278;2022-07-23T12:00:24;23.73;;;8.35;;
56718;SDS011;42597;40.636;0.278;2022-07-23T12:02:52;14.85;;;7.97;;
56718;SDS011;42597;40.636;0.278;2022-07-23T12:05:39;11.68;;;7.72;;
56718;SDS011;42597;40.636;0.278;2022-07-23T12:08:07;6.60;;;5.68;;
56718;SDS011;42597;40.636;0.278;2022-07-23T12:13:10;9.57;;;7.72;;
56718;SDS011;42597;40.636;0.278;2022-07-23T12:15:48;11.88;;;7.90;;
56718;SDS011;42597;40.636;0.278;2022-07-23T12:18:18;10.05;;;7.13;;
56718;SDS011;42597;40.636;0.278;2022-07-23T12:20:49;11.70;;;8.43;;
56718;SDS011;42597;40.636;0.278;2022-07-23T12:23:19;10.95;;;8.38;;
56718;SDS011;42597;40.636;0.278;2022-07-23T12:25:46;11.35;;;7.40;;
56718;SDS011;42597;40.636;0.278;2022-07-23T12:30:45;9.27;;;8.38;;
56718;SDS011;42597;40.636;0.278;2022-07-23T12:35:51;9.50;;;7.60;;
56718;SDS011;42597;40.636;0.278;2022-07-23T12:38:19;17.50;;;7.13;;
56718;SDS011;42597;40.636;0.278;2022-07-23T12:40:47;5.75;;;4.53;;
56718;SDS011;42597;40.636;0.278;2022-07-23T12:43:29;13.18;;;7.95;;
56718;SDS011;42597;40.636;0.278;2022-07-23T12:51:17;10.57;;;6.72;;
56718;SDS011;42597;40.636;0.278;2022-07-23T12:53:49;8.73;;;7.35;;
56718;SDS011;42597;40.636;0.278;2022-07-23T12:56:21;11.63;;;7.38;;
56718;SDS011;42597;40.636;0.278;2022-07-23T12:58:57;10.32;;;7.80;;
56718;SDS011;42597;40.636;0.278;2022-07-23T13:04:03;9.02;;;8.13;;
56718;SDS011;42597;40.636;0.278;2022-07-23T13:06:40;8.75;;;7.85;;
56718;SDS011;42597;40.636;0.278;2022-07-23T13:09:08;9.68;;;8.75;;
56718;SDS011;42597;40.636;0.278;2022-07-23T13:11:37;10.10;;;8.05;;
56718;SDS011;42597;40.636;0.278;2022-07-23T13:14:04;10.30;;;8.23;;
56718;SDS011;42597;40.636;0.278;2022-07-23T13:16:30;10.90;;;8.05;;
56718;SDS011;42597;40.636;0.278;2022-07-23T13:18:57;10.82;;;7.95;;
56718;SDS011;42597;40.636;0.278;2022-07-23T13:21:25;8.95;;;8.15;;
56718;SDS011;42597;40.636;0.278;2022-07-23T13:23:51;9.40;;;8.10;;
56718;SDS011;42597;40.636;0.278;2022-07-23T13:26:18;9.88;;;8.13;;
56718;SDS011;42597;40.636;0.278;2022-07-23T13:28:43;15.15;;;7.65;;
56718;SDS011;42597;40.636;0.278;2022-07-23T13:31:09;9.07;;;7.93;;
56718;SDS011;42597;40.636;0.278;2022-07-23T13:33:35;13.57;;;8.32;;
56718;SDS011;42597;40.636;0.278;2022-07-23T13:36:00;9.63;;;8.15;;
56718;SDS011;42597;40.636;0.278;2022-07-23T13:38:26;10.50;;;8.00;;
56718;SDS011;42597;40.636;0.278;2022-07-23T13:40:52;9.77;;;8.55;;
56718;SDS011;42597;40.636;0.278;2022-07-23T13:43:20;11.48;;;9.32;;
56718;SDS011;42597;40.636;0.278;2022-07-23T13:48:14;13.07;;;8.98;;
56718;SDS011;42597;40.636;0.278;2022-07-23T13:50:41;9.00;;;8.00;;
56718;SDS011;42597;40.636;0.278;2022-07-23T13:53:08;11.93;;;8.75;;
56718;SDS011;42597;40.636;0.278;2022-07-23T13:55:36;12.75;;;8.20;;
56718;SDS011;42597;40.636;0.278;2022-07-23T13:58:03;8.77;;;7.85;;
56718;SDS011;42597;40.636;0.278;2022-07-23T14:00:30;11.82;;;9.32;;
56718;SDS011;42597;40.636;0.278;2022-07-23T14:02:57;12.05;;;8.52;;
56718;SDS011;42597;40.636;0.278;2022-07-23T14:05:24;11.70;;;7.93;;
56718;SDS011;42597;40.636;0.278;2022-07-23T14:07:50;9.60;;;8.55;;
56718;SDS011;42597;40.636;0.278;2022-07-23T14:10:17;9.80;;;7.90;;
56718;SDS011;42597;40.636;0.278;2022-07-23T14:12:45;10.88;;;8.25;;
56718;SDS011;42597;40.636;0.278;2022-07-23T14:15:11;10.90;;;8.68;;
56718;SDS011;42597;40.636;0.278;2022-07-23T14:17:37;13.98;;;8.98;;
56718;SDS011;42597;40.636;0.278;2022-07-23T14:20:05;16.00;;;8.52;;
56718;SDS011;42597;40.636;0.278;2022-07-23T14:22:32;10.07;;;9.00;;
56718;SDS011;42597;40.636;0.278;2022-07-23T14:24:58;13.45;;;8.93;;
56718;SDS011;42597;40.636;0.278;2022-07-23T14:27:24;9.50;;;8.60;;
56718;SDS011;42597;40.636;0.278;2022-07-23T14:29:51;10.20;;;8.48;;
56718;SDS011;42597;40.636;0.278;2022-07-23T14:32:17;9.23;;;8.23;;
56718;SDS011;42597;40.636;0.278;2022-07-23T14:34:43;13.40;;;8.13;;
56718;SDS011;42597;40.636;0.278;2022-07-23T14:37:09;11.52;;;8.25;;
56718;SDS011;42597;40.636;0.278;2022-07-23T14:39:37;10.23;;;8.00;;
56718;SDS011;42597;40.636;0.278;2022-07-23T14:42:05;10.63;;;8.35;;
56718;SDS011;42597;40.636;0.278;2022-07-23T14:44:32;9.45;;;8.32;;
56718;SDS011;42597;40.636;0.278;2022-07-23T14:46:58;10.43;;;7.47;;
56718;SDS011;42597;40.636;0.278;2022-07-23T14:49:25;9.57;;;8.40;;
56718;SDS011;42597;40.636;0.278;2022-07-23T14:51:51;10.70;;;8.85;;
56718;SDS011;42597;40.636;0.278;2022-07-23T14:54:17;10.00;;;8.13;;
56718;SDS011;42597;40.636;0.278;2022-07-23T14:56:42;9.55;;;7.60;;
56718;SDS011;42597;40.636;0.278;2022-07-23T14:59:08;11.63;;;8.35;;
56718;SDS011;42597;40.636;0.278;2022-07-23T15:01:34;16.55;;;8.10;;
56718;SDS011;42597;40.636;0.278;2022-07-23T15:04:01;9.65;;;7.97;;
56718;SDS011;42597;40.636;0.278;2022-07-23T15:06:27;10.25;;;8.48;;
56718;SDS011;42597;40.636;0.278;2022-07-23T15:08:52;8.73;;;7.80;;
56718;SDS011;42597;40.636;0.278;2022-07-23T15:11:18;13.38;;;8.60;;
56718;SDS011;42597;40.636;0.278;2022-07-23T15:13:44;9.63;;;8.60;;
56718;SDS011;42597;40.636;0.278;2022-07-23T15:16:09;11.65;;;8.77;;
56718;SDS011;42597;40.636;0.278;2022-07-23T15:18:35;12.23;;;9.25;;
56718;SDS011;42597;40.636;0.278;2022-07-23T15:21:01;10.57;;;8.13;;
56718;SDS011;42597;40.636;0.278;2022-07-23T15:23:27;10.68;;;7.97;;
56718;SDS011;42597;40.636;0.278;2022-07-23T15:25:54;13.48;;;9.38;;
56718;SDS011;42597;40.636;0.278;2022-07-23T15:28:21;11.55;;;8.85;;
56718;SDS011;42597;40.636;0.278;2022-07-23T15:30:47;8.43;;;6.78;;
56718;SDS011;42597;40.636;0.278;2022-07-23T15:33:13;10.52;;;5.85;;
56718;SDS011;42597;40.636;0.278;2022-07-23T15:35:38;9.52;;;8.40;;
56718;SDS011;42597;40.636;0.278;2022-07-23T15:38:04;10.75;;;8.18;;
56718;SDS011;42597;40.636;0.278;2022-07-23T15:40:30;8.20;;;6.70;;
56718;SDS011;42597;40.636;0.278;2022-07-23T15:42:56;10.43;;;8.45;;
56718;SDS011;42597;40.636;0.278;2022-07-23T15:45:21;11.02;;;8.30;;
56718;SDS011;42597;40.636;0.278;2022-07-23T15:47:47;10.88;;;9.25;;
56718;SDS011;42597;40.636;0.278;2022-07-23T15:50:14;12.30;;;8.90;;
56718;SDS011;42597;40.636;0.278;2022-07-23T15:52:40;9.60;;;8.63;;
56718;SDS011;42597;40.636;0.278;2022-07-23T15:55:06;12.60;;;8.65;;